createdAt,value
2019-05-18T00:02:16.056Z,13.78
2019-05-18T00:04:47.618Z,13.84
2019-05-18T00:07:19.355Z,13.85
2019-05-18T00:09:51.707Z,13.84
2019-05-18T00:12:23.528Z,13.81
2019-05-18T00:14:55.330Z,13.82
2019-05-18T00:17:27.255Z,13.84
2019-05-18T00:19:59.094Z,13.87
2019-05-18T00:22:30.674Z,13.91
2019-05-18T00:25:02.459Z,13.87
2019-05-18T00:27:35.414Z,13.79
2019-05-18T00:30:07.795Z,13.79
2019-05-18T00:32:40.996Z,13.77
2019-05-18T00:35:12.772Z,13.77
2019-05-18T00:37:45.269Z,13.82
2019-05-18T00:40:17.357Z,13.82
2019-05-18T00:42:49.056Z,13.85
2019-05-18T00:45:21.268Z,13.81
2019-05-18T00:47:52.816Z,13.77
2019-05-18T00:50:24.295Z,13.74
2019-05-18T00:52:56.071Z,13.69
2019-05-18T00:55:27.579Z,13.27
2019-05-18T00:57:59.216Z,13.18
2019-05-18T01:00:30.847Z,13.20
2019-05-18T01:03:05.461Z,13.22
2019-05-18T01:05:38.186Z,13.21
2019-05-18T01:08:09.917Z,13.20
2019-05-18T01:10:41.443Z,13.25
2019-05-18T01:13:14.190Z,13.28
2019-05-18T01:15:45.960Z,13.30
2019-05-18T01:18:17.807Z,13.32
2019-05-18T01:20:49.589Z,13.31
2019-05-18T01:23:21.295Z,13.31
2019-05-18T01:25:53.037Z,13.28
2019-05-18T01:28:24.644Z,13.23
2019-05-18T01:30:56.338Z,13.19
2019-05-18T01:33:27.921Z,13.11
2019-05-18T01:35:59.539Z,13.11
2019-05-18T01:38:31.129Z,12.90
2019-05-18T01:41:02.874Z,12.91
2019-05-18T01:43:34.429Z,12.89
2019-05-18T01:46:06.240Z,12.90
2019-05-18T01:48:37.850Z,12.91
2019-05-18T01:51:09.528Z,12.87
2019-05-18T01:53:41.396Z,12.73
2019-05-18T01:56:13.031Z,12.56
2019-05-18T01:58:44.576Z,12.55
2019-05-18T02:01:16.172Z,12.40
2019-05-18T02:03:49.914Z,11.79
2019-05-18T02:06:21.459Z,11.77
2019-05-18T02:08:55.054Z,11.71
2019-05-18T02:11:26.836Z,11.92
2019-05-18T02:14:00.007Z,12.01
2019-05-18T02:16:31.624Z,11.83
2019-05-18T02:19:04.959Z,11.79
2019-05-18T02:21:36.778Z,11.71
2019-05-18T02:24:08.626Z,11.79
2019-05-18T02:26:40.675Z,11.95
2019-05-18T02:29:12.265Z,12.09
2019-05-18T02:31:43.924Z,12.12
2019-05-18T02:34:15.465Z,11.96
2019-05-18T02:36:47.131Z,12.04
2019-05-18T02:39:19.211Z,12.05
2019-05-18T02:41:50.879Z,12.05
2019-05-18T02:44:22.810Z,11.97
2019-05-18T02:46:54.422Z,12.01
2019-05-18T02:49:26.045Z,11.95
2019-05-18T02:51:57.596Z,12.01
2019-05-18T02:54:30.070Z,11.96
2019-05-18T02:57:01.621Z,11.98
2019-05-18T02:59:33.169Z,12.03
2019-05-18T03:02:04.808Z,12.05
2019-05-18T03:04:36.818Z,12.08
2019-05-18T03:07:08.406Z,11.99
2019-05-18T03:09:40.280Z,11.95
2019-05-18T03:12:12.067Z,12.04
2019-05-18T03:14:43.847Z,12.13
2019-05-18T03:17:17.503Z,12.11
2019-05-18T03:19:49.084Z,11.97
2019-05-18T03:22:20.702Z,12.03
2019-05-18T03:24:52.565Z,12.08
2019-05-18T03:27:24.390Z,11.98
2019-05-18T03:29:56.016Z,11.83
2019-05-18T03:32:27.807Z,11.86
2019-05-18T03:34:59.738Z,11.91
2019-05-18T03:37:31.331Z,11.93
2019-05-18T03:40:03.005Z,12.01
2019-05-18T03:42:34.560Z,11.94
2019-05-18T03:45:07.590Z,12.01
2019-05-18T03:47:39.412Z,12.02
2019-05-18T03:50:12.631Z,12.07
2019-05-18T03:52:44.228Z,11.96
2019-05-18T03:55:16.049Z,11.94
2019-05-18T03:57:47.950Z,11.91
2019-05-18T04:00:19.798Z,11.89
2019-05-18T04:02:51.317Z,11.86
2019-05-18T04:05:22.912Z,11.89
2019-05-18T04:07:54.730Z,11.88
2019-05-18T04:10:27.489Z,11.90
2019-05-18T04:12:59.066Z,11.83
2019-05-18T04:15:30.699Z,11.76
2019-05-18T04:18:02.513Z,11.79
2019-05-18T04:20:34.603Z,11.88
2019-05-18T04:23:06.202Z,11.90
2019-05-18T04:25:37.801Z,11.95
2019-05-18T04:28:10.095Z,11.89
2019-05-18T04:30:42.380Z,11.82
2019-05-18T04:33:13.951Z,11.86
2019-05-18T04:35:46.528Z,11.89
2019-05-18T04:38:18.337Z,11.93
2019-05-18T04:40:49.894Z,12.01
2019-05-18T04:43:21.770Z,12.12
2019-05-18T04:45:53.567Z,12.14
2019-05-18T04:48:25.172Z,12.08
2019-05-18T04:50:56.784Z,12.08
2019-05-18T04:53:28.563Z,12.18
2019-05-18T04:56:00.658Z,12.24
2019-05-18T04:58:32.249Z,12.33
2019-05-18T05:01:03.821Z,12.30
2019-05-18T05:03:35.754Z,12.26
2019-05-18T05:06:07.383Z,12.28
2019-05-18T05:08:39.198Z,12.18
2019-05-18T05:11:12.716Z,11.96
2019-05-18T05:13:44.398Z,11.75
2019-05-18T05:16:16.201Z,11.73
2019-05-18T05:18:48.032Z,11.79
2019-05-18T05:21:19.812Z,11.88
2019-05-18T05:23:51.407Z,11.92
2019-05-18T05:26:23.040Z,11.96
2019-05-18T05:28:54.776Z,12.19
2019-05-18T05:31:26.974Z,12.32
2019-05-18T05:33:58.847Z,12.40
2019-05-18T05:36:30.403Z,12.07
2019-05-18T05:39:02.022Z,12.00
2019-05-18T05:41:33.598Z,12.03
2019-05-18T05:44:05.505Z,12.16
2019-05-18T05:46:37.615Z,12.21
2019-05-18T05:49:09.389Z,12.45
2019-05-18T05:51:41.217Z,12.56
2019-05-18T05:54:13.045Z,12.50
2019-05-18T05:56:45.668Z,12.67
2019-05-18T05:59:17.316Z,12.85
2019-05-18T06:01:48.909Z,12.89
2019-05-18T06:04:20.565Z,13.04
2019-05-18T06:06:52.103Z,13.27
2019-05-18T06:09:23.837Z,13.45
2019-05-18T06:11:55.401Z,13.55
2019-05-18T06:14:27.515Z,13.73
2019-05-18T06:16:59.138Z,13.76
2019-05-18T06:19:30.826Z,13.70
2019-05-18T06:22:02.871Z,13.44
2019-05-18T06:24:34.534Z,13.12
2019-05-18T06:27:07.166Z,13.26
2019-05-18T06:29:39.239Z,13.37
2019-05-18T06:32:12.307Z,13.29
2019-05-18T06:34:43.860Z,13.26
2019-05-18T06:37:15.397Z,13.45
2019-05-18T06:39:46.937Z,13.49
2019-05-18T06:42:19.828Z,13.34
2019-05-18T06:44:53.349Z,13.50
2019-05-18T06:47:25.088Z,13.62
2019-05-18T06:49:56.669Z,13.78
2019-05-18T06:52:28.229Z,13.80
2019-05-18T06:54:59.943Z,13.53
2019-05-18T06:57:32.078Z,13.45
2019-05-18T07:00:04.704Z,13.49
2019-05-18T07:02:36.656Z,13.75
2019-05-18T07:05:08.855Z,13.67
2019-05-18T07:07:40.614Z,13.99
2019-05-18T07:10:12.987Z,13.66
2019-05-18T07:12:44.622Z,13.66
2019-05-18T07:15:21.425Z,13.64
2019-05-18T07:17:53.053Z,14.08
2019-05-18T07:20:24.800Z,14.34
2019-05-18T07:22:56.553Z,13.94
2019-05-18T07:25:28.592Z,13.95
2019-05-18T07:28:00.173Z,14.04
2019-05-18T07:30:32.149Z,13.82
2019-05-18T07:33:03.764Z,14.34
2019-05-18T07:35:35.275Z,14.84
2019-05-18T07:38:07.967Z,14.95
2019-05-18T07:40:39.791Z,15.24
2019-05-18T07:43:11.695Z,15.67
2019-05-18T07:45:43.184Z,15.68
2019-05-18T07:48:17.772Z,15.46
2019-05-18T07:50:49.357Z,15.27
2019-05-18T07:53:21.265Z,15.44
2019-05-18T07:55:53.228Z,15.23
2019-05-18T07:58:24.764Z,15.65
2019-05-18T08:00:56.397Z,16.13
2019-05-18T08:03:27.930Z,16.55
2019-05-18T08:05:59.473Z,15.73
2019-05-18T08:08:31.049Z,15.62
2019-05-18T08:11:02.578Z,16.24
2019-05-18T08:13:34.013Z,16.57
2019-05-18T08:16:05.686Z,16.98
2019-05-18T08:18:37.390Z,17.28
2019-05-18T08:21:08.947Z,17.65
2019-05-18T08:23:40.417Z,18.00
2019-05-18T08:26:12.250Z,18.38
2019-05-18T08:28:43.737Z,18.41
2019-05-18T08:31:15.317Z,18.58
2019-05-18T08:33:46.843Z,18.60
2019-05-18T08:36:18.368Z,18.90
2019-05-18T08:38:50.048Z,19.09
2019-05-18T08:41:21.814Z,19.26
2019-05-18T08:43:53.433Z,19.27
2019-05-18T08:46:25.506Z,19.14
2019-05-18T08:48:56.988Z,19.61
2019-05-18T08:51:28.808Z,19.49
2019-05-18T08:54:01.129Z,19.23
2019-05-18T08:56:32.656Z,19.74
2019-05-18T08:59:04.640Z,19.70
2019-05-18T09:01:36.798Z,20.05
2019-05-18T09:04:08.648Z,20.58
2019-05-18T09:06:40.175Z,20.86
2019-05-18T09:09:11.971Z,20.79
2019-05-18T09:11:45.131Z,21.09
2019-05-18T09:14:16.676Z,21.56
2019-05-18T09:16:48.511Z,21.48
2019-05-18T09:19:20.032Z,21.42
2019-05-18T09:21:51.467Z,21.50
2019-05-18T09:24:23.007Z,21.71
2019-05-18T09:26:54.544Z,21.48
2019-05-18T09:29:26.265Z,21.50
2019-05-18T09:31:57.819Z,21.52
2019-05-18T09:34:29.345Z,21.76
2019-05-18T09:37:00.831Z,21.93
2019-05-18T09:39:32.351Z,22.02
2019-05-18T09:42:04.069Z,22.23
2019-05-18T09:44:37.353Z,22.51
2019-05-18T09:47:09.316Z,22.72
2019-05-18T09:49:40.852Z,22.88
2019-05-18T09:52:12.653Z,22.77
2019-05-18T09:54:44.167Z,22.91
2019-05-18T09:57:15.909Z,22.91
2019-05-18T09:59:47.402Z,22.34
2019-05-18T10:02:19.023Z,22.34
2019-05-18T10:04:50.828Z,22.41
2019-05-18T10:07:22.371Z,22.69
2019-05-18T10:09:53.871Z,22.67
2019-05-18T10:12:25.369Z,22.74
2019-05-18T10:14:59.493Z,22.85
2019-05-18T10:17:31.019Z,22.89
2019-05-18T10:20:02.595Z,23.05
2019-05-18T10:22:34.371Z,23.08
2019-05-18T10:25:06.219Z,22.89
2019-05-18T10:27:37.851Z,22.92
2019-05-18T10:30:10.390Z,23.09
2019-05-18T10:32:42.126Z,23.21
2019-05-18T10:35:14.369Z,22.57
2019-05-18T10:37:45.797Z,23.08
2019-05-18T10:40:19.253Z,23.46
2019-05-18T10:42:50.752Z,23.72
2019-05-18T10:45:22.623Z,23.40
2019-05-18T10:47:54.131Z,23.44
2019-05-18T10:50:25.689Z,21.42
2019-05-18T10:52:57.270Z,20.48
2019-05-18T10:55:28.805Z,21.22
2019-05-18T10:58:00.499Z,20.68
2019-05-18T11:00:32.087Z,20.63
2019-05-18T11:03:03.652Z,21.22
2019-05-18T11:05:35.423Z,21.55
2019-05-18T11:08:07.179Z,21.18
2019-05-18T11:10:38.849Z,21.32
2019-05-18T11:13:10.391Z,22.02
2019-05-18T11:15:41.895Z,22.45
2019-05-18T11:18:13.698Z,22.82
2019-05-18T11:20:48.140Z,23.16
2019-05-18T11:23:19.689Z,23.46
2019-05-18T11:25:51.377Z,23.74
2019-05-18T11:28:22.921Z,23.51
2019-05-18T11:30:54.763Z,23.51
2019-05-18T11:33:26.298Z,23.33
2019-05-18T11:35:58.131Z,23.32
2019-05-18T11:38:29.770Z,23.01
2019-05-18T11:41:01.713Z,23.34
2019-05-18T11:43:33.368Z,23.60
2019-05-18T11:46:05.009Z,23.47
2019-05-18T11:48:36.678Z,23.80
2019-05-18T11:51:08.231Z,23.77
2019-05-18T11:53:39.825Z,23.34
2019-05-18T11:56:11.759Z,23.46
2019-05-18T11:58:44.141Z,23.40
2019-05-18T12:01:15.680Z,23.18
2019-05-18T12:03:47.253Z,23.45
2019-05-18T12:06:18.827Z,23.59
2019-05-18T12:08:50.344Z,23.08
2019-05-18T12:11:21.962Z,23.22
2019-05-18T12:13:54.285Z,23.00
2019-05-18T12:16:25.864Z,22.77
2019-05-18T12:18:57.823Z,22.66
2019-05-18T12:21:31.459Z,22.23
2019-05-18T12:24:14.824Z,22.16
2019-05-18T12:26:36.276Z,21.99
2019-05-18T12:29:08.301Z,22.11
2019-05-18T12:31:39.992Z,22.30
2019-05-18T12:34:11.712Z,22.13
2019-05-18T12:36:43.460Z,21.83
2019-05-18T12:39:15.013Z,21.95
2019-05-18T12:41:47.149Z,22.13
2019-05-18T12:44:18.973Z,21.97
2019-05-18T12:46:50.645Z,21.60
2019-05-18T12:49:22.588Z,21.36
2019-05-18T12:51:54.310Z,21.21
2019-05-18T12:54:30.931Z,21.49
2019-05-18T12:57:00.740Z,21.49
2019-05-18T12:59:32.306Z,20.91
2019-05-18T13:02:05.184Z,20.83
2019-05-18T13:04:37.256Z,20.90
2019-05-18T13:07:08.880Z,20.98
2019-05-18T13:09:41.612Z,21.01
2019-05-18T13:12:13.516Z,20.73
2019-05-18T13:14:45.300Z,20.44
2019-05-18T13:17:21.272Z,20.86
2019-05-18T13:19:52.233Z,20.48
2019-05-18T13:22:23.806Z,20.45
2019-05-18T13:24:55.363Z,20.39
2019-05-18T13:27:38.890Z,20.22
2019-05-18T13:30:02.035Z,20.43
2019-05-18T13:32:33.942Z,20.62
2019-05-18T13:35:06.115Z,20.43
2019-05-18T13:37:37.912Z,20.52
2019-05-18T13:40:11.242Z,20.37
2019-05-18T13:42:42.825Z,20.15
2019-05-18T13:45:15.283Z,20.09
2019-05-18T13:47:46.896Z,20.36
2019-05-18T13:50:20.330Z,20.15
2019-05-18T13:52:52.122Z,20.25
2019-05-18T13:55:23.660Z,20.39
2019-05-18T13:57:58.305Z,20.65
2019-05-18T14:00:29.870Z,20.60
2019-05-18T14:03:01.540Z,20.79
2019-05-18T14:05:33.092Z,20.89
2019-05-18T14:08:04.702Z,20.89
2019-05-18T14:10:36.336Z,20.25
2019-05-18T14:13:08.119Z,20.66
2019-05-18T14:15:39.607Z,20.55
2019-05-18T14:18:11.410Z,20.23
2019-05-18T14:20:43.986Z,19.84
2019-05-18T14:23:19.119Z,20.10
2019-05-18T14:25:50.673Z,20.56
2019-05-18T14:28:22.249Z,20.08
2019-05-18T14:30:53.821Z,20.14
2019-05-18T14:33:25.497Z,20.22
2019-05-18T14:35:56.988Z,20.11
2019-05-18T14:38:40.293Z,19.70
2019-05-18T14:41:11.843Z,20.16
2019-05-18T14:43:43.893Z,20.34
2019-05-18T14:46:15.664Z,19.94
2019-05-18T14:48:47.244Z,20.04
2019-05-18T14:51:19.086Z,19.78
2019-05-18T14:53:50.658Z,20.04
2019-05-18T14:56:22.251Z,20.40
2019-05-18T14:58:53.802Z,20.66
2019-05-18T15:01:25.560Z,20.79
2019-05-18T15:03:57.599Z,20.88
2019-05-18T15:06:29.357Z,20.83
2019-05-18T15:09:01.049Z,20.93
2019-05-18T15:11:33.618Z,20.93
2019-05-18T15:14:06.626Z,20.38
2019-05-18T15:16:38.262Z,20.30
2019-05-18T15:19:11.834Z,19.92
2019-05-18T15:21:43.389Z,19.75
2019-05-18T15:24:14.939Z,19.55
2019-05-18T15:26:46.799Z,19.36
2019-05-18T15:29:20.441Z,19.48
2019-05-18T15:31:52.234Z,19.85
2019-05-18T15:34:23.812Z,19.56
2019-05-18T15:36:55.318Z,19.61
2019-05-18T15:39:28.507Z,20.00
2019-05-18T15:42:00.291Z,19.68
2019-05-18T15:44:31.881Z,19.68
2019-05-18T15:47:03.426Z,19.99
2019-05-18T15:49:35.152Z,20.17
2019-05-18T15:52:06.989Z,20.25
2019-05-18T15:54:38.788Z,20.35
2019-05-18T15:57:10.410Z,20.22
2019-05-18T15:59:43.786Z,20.34
2019-05-18T16:02:15.383Z,20.26
2019-05-18T16:04:46.964Z,20.33
2019-05-18T16:07:18.758Z,20.37
2019-05-18T16:09:50.405Z,20.36
2019-05-18T16:12:22.205Z,20.23
2019-05-18T16:14:55.836Z,20.27
2019-05-18T16:17:38.826Z,20.25
2019-05-18T16:20:00.855Z,20.21
2019-05-18T16:22:32.441Z,20.22
2019-05-18T16:25:04.545Z,19.85
2019-05-18T16:27:36.443Z,19.89
2019-05-18T16:30:21.500Z,19.44
2019-05-18T16:32:55.116Z,19.74
2019-05-18T16:35:27.173Z,19.81
2019-05-18T16:38:00.478Z,19.93
2019-05-18T16:40:32.093Z,19.95
2019-05-18T16:43:03.882Z,20.04
2019-05-18T16:45:36.582Z,19.87
2019-05-18T16:48:08.197Z,19.99
2019-05-18T16:50:39.826Z,20.09
2019-05-18T16:53:13.431Z,20.06
2019-05-18T16:55:45.083Z,20.02
2019-05-18T16:58:16.664Z,20.04
2019-05-18T17:00:48.394Z,20.08
2019-05-18T17:03:19.960Z,20.07
2019-05-18T17:05:51.730Z,20.07
2019-05-18T17:08:23.388Z,20.12
2019-05-18T17:10:59.537Z,19.98
2019-05-18T17:13:31.394Z,20.08
2019-05-18T17:16:03.590Z,19.85
2019-05-18T17:18:36.643Z,19.82
2019-05-18T17:21:09.252Z,19.88
2019-05-18T17:23:40.925Z,19.85
2019-05-18T17:26:12.571Z,19.86
2019-05-18T17:28:44.221Z,19.83
2019-05-18T17:31:16.112Z,19.72
2019-05-18T17:33:48.345Z,19.70
2019-05-18T17:36:20.063Z,19.73
2019-05-18T17:38:55.244Z,19.72
2019-05-18T17:41:26.806Z,19.72
2019-05-18T17:43:58.409Z,19.51
2019-05-18T17:46:30.013Z,19.40
2019-05-18T17:49:01.769Z,19.32
2019-05-18T17:51:33.364Z,19.40
2019-05-18T17:54:05.369Z,19.30
2019-05-18T17:56:36.968Z,19.25
2019-05-18T17:59:10.176Z,19.19
2019-05-18T18:01:41.810Z,18.95
2019-05-18T18:04:15.796Z,19.01
2019-05-18T18:06:47.332Z,19.15
2019-05-18T18:09:18.952Z,19.15
2019-05-18T18:11:50.598Z,19.17
2019-05-18T18:14:22.441Z,19.18
2019-05-18T18:16:54.250Z,19.26
2019-05-18T18:19:25.817Z,19.29
2019-05-18T18:21:57.409Z,19.16
2019-05-18T18:24:29.259Z,19.14
2019-05-18T18:27:00.855Z,19.16
2019-05-18T18:29:32.756Z,19.10
2019-05-18T18:32:04.961Z,19.06
2019-05-18T18:34:36.923Z,19.05
2019-05-18T18:37:08.478Z,19.08
2019-05-18T18:39:42.102Z,19.05
2019-05-18T18:42:14.826Z,19.02
2019-05-18T18:44:46.393Z,18.93
2019-05-18T18:47:17.945Z,18.96
2019-05-18T18:49:49.647Z,18.88
2019-05-18T18:52:21.223Z,18.77
2019-05-18T18:54:53.687Z,18.76
2019-05-18T18:57:39.915Z,18.77
2019-05-18T18:59:58.662Z,18.73
2019-05-18T19:02:30.551Z,18.63
2019-05-18T19:05:02.166Z,18.63
2019-05-18T19:07:33.833Z,18.57
2019-05-18T19:10:05.887Z,18.58
2019-05-18T19:12:38.084Z,18.59
2019-05-18T19:15:10.407Z,18.53
2019-05-18T19:17:42.001Z,18.60
2019-05-18T19:20:14.952Z,18.48
2019-05-18T19:22:46.580Z,18.53
2019-05-18T19:25:18.576Z,18.51
2019-05-18T19:27:54.996Z,18.36
2019-05-18T19:30:23.421Z,18.31
2019-05-18T19:32:55.075Z,18.23
2019-05-18T19:35:27.487Z,18.23
2019-05-18T19:37:59.025Z,18.12
2019-05-18T19:40:32.707Z,18.13
2019-05-18T19:43:04.329Z,18.16
2019-05-18T19:45:36.043Z,18.17
2019-05-18T19:48:07.574Z,17.97
2019-05-18T19:50:39.418Z,18.10
2019-05-18T19:53:11.085Z,18.00
2019-05-18T19:55:42.706Z,18.00
2019-05-18T19:58:14.621Z,17.89
2019-05-18T20:00:48.162Z,17.89
2019-05-18T20:03:20.354Z,17.84
2019-05-18T20:05:52.150Z,17.89
2019-05-18T20:08:23.703Z,17.84
2019-05-18T20:10:56.503Z,17.77
2019-05-18T20:13:28.101Z,17.72
2019-05-18T20:15:59.710Z,17.70
2019-05-18T20:18:31.256Z,17.65
2019-05-18T20:21:02.990Z,17.63
2019-05-18T20:23:34.910Z,17.63
2019-05-18T20:26:06.456Z,17.61
2019-05-18T20:28:39.752Z,17.59
2019-05-18T20:31:15.100Z,17.63
2019-05-18T20:33:46.712Z,17.47
2019-05-18T20:36:18.592Z,17.54
2019-05-18T20:38:50.318Z,17.61
2019-05-18T20:41:22.354Z,17.59
2019-05-18T20:43:54.395Z,17.56
2019-05-18T20:46:25.964Z,17.59
2019-05-18T20:48:57.604Z,17.54
2019-05-18T20:51:29.162Z,17.59
2019-05-18T20:54:00.947Z,17.57
2019-05-18T20:56:32.641Z,17.57
2019-05-18T20:59:04.414Z,17.66
2019-05-18T21:01:36.115Z,17.68
2019-05-18T21:04:07.700Z,17.67
2019-05-18T21:06:39.876Z,17.70
2019-05-18T21:09:11.739Z,17.58
2019-05-18T21:11:43.367Z,17.53
2019-05-18T21:14:15.085Z,17.55
2019-05-18T21:16:46.641Z,17.56
2019-05-18T21:19:18.194Z,17.54
2019-05-18T21:21:49.777Z,17.55
2019-05-18T21:24:21.324Z,17.56
2019-05-18T21:26:52.999Z,17.55
2019-05-18T21:29:24.537Z,17.50
2019-05-18T21:31:56.367Z,17.41
2019-05-18T21:34:27.992Z,17.42
2019-05-18T21:36:59.698Z,17.54
2019-05-18T21:39:31.631Z,17.58
2019-05-18T21:42:03.235Z,17.58
2019-05-18T21:44:35.281Z,17.51
2019-05-18T21:47:06.801Z,17.41
2019-05-18T21:49:38.433Z,17.36
2019-05-18T21:52:10.063Z,17.41
2019-05-18T21:54:41.628Z,17.47
2019-05-18T21:57:14.825Z,17.46
2019-05-18T21:59:46.447Z,17.46
2019-05-18T22:02:18.183Z,17.49
2019-05-18T22:04:49.745Z,17.18
2019-05-18T22:07:21.654Z,17.38
2019-05-18T22:09:53.896Z,17.31
2019-05-18T22:12:25.823Z,17.31
2019-05-18T22:14:57.507Z,17.39
2019-05-18T22:17:29.616Z,17.48
2019-05-18T22:20:01.271Z,17.49
2019-05-18T22:22:32.967Z,17.50
2019-05-18T22:25:04.791Z,17.58
2019-05-18T22:27:36.678Z,17.54
2019-05-18T22:30:08.383Z,17.56
2019-05-18T22:32:40.195Z,17.62
2019-05-18T22:35:11.997Z,17.60
2019-05-18T22:37:43.800Z,17.43
2019-05-18T22:40:15.884Z,17.57
2019-05-18T22:42:47.560Z,17.52
2019-05-18T22:45:19.550Z,17.53
2019-05-18T22:47:51.180Z,17.56
2019-05-18T22:50:23.239Z,17.55
2019-05-18T22:52:54.891Z,17.61
2019-05-18T22:55:26.479Z,17.64
2019-05-18T22:57:58.090Z,17.65
2019-05-18T23:00:29.806Z,17.62
2019-05-18T23:03:01.515Z,17.75
2019-05-18T23:05:33.334Z,17.70
2019-05-18T23:08:05.115Z,17.71
2019-05-18T23:10:36.951Z,17.78
2019-05-18T23:13:08.709Z,17.71
2019-05-18T23:15:40.443Z,17.75
2019-05-18T23:18:12.045Z,17.73
2019-05-18T23:20:44.035Z,17.69
2019-05-18T23:23:15.663Z,17.63
2019-05-18T23:25:48.082Z,17.63
2019-05-18T23:28:19.851Z,17.61
2019-05-18T23:30:51.937Z,17.59
2019-05-18T23:33:23.496Z,17.56
2019-05-18T23:35:55.042Z,17.40
2019-05-18T23:38:26.656Z,17.07
2019-05-18T23:40:59.307Z,17.43
2019-05-18T23:43:30.933Z,17.53
2019-05-18T23:46:02.684Z,17.56
2019-05-18T23:48:34.344Z,17.54
2019-05-18T23:51:05.973Z,17.51
2019-05-18T23:53:37.579Z,17.49
2019-05-18T23:56:10.273Z,17.44
2019-05-18T23:58:42.589Z,17.32
